Strona główna
METAR-TAF:

METAR-TAF

Lotnisko :

Platforma wiertnicza

Ula, Norwegia

Szerokość geograficzna: 59-06-39N, Długość geograficzna: 2-50-45E, wysokość: 0 m

Aktualna obserwacja pogody

Raport powstał 33 minut temu, godzina 01:20 UTC
Wiatr 23 kt od zachód
Temperatura 7°C
Wilgotność 93%
Ciśnienie 1020 hPa
Widzialność 10 km lub więcej

METAR: ENLA 010120Z AUTO 28023KT 9999NDV BKN013/// BKN056/// 07/06 Q1020 W///S4

czas: 03:53 (01:53 UTC)


TAF: brakujący

Obserwacja i prognoza pogody dla ponad 4000 lotnisk (raport METAR i TAF).

Dostępne stacje oznaczono żółtymi i czerwonymi punktami na mapie.

Najedź kursorem aby zobaczyć nazwę stacji.

Kliknij aby zobaczyć obserwacje i prognozy pogody.

Aby zmienić mapę: kliknij na zielony przycisk z czarnym krzyżykiem, aby powiększyć; na zielony przycisk z myślnikiem, aby pomniejszyć; na zielone strzałki, aby przejść do map sąsiednich.


METAR-TAF: